createdAt,value
2022-10-25T00:02:19.280Z,25.95
2022-10-25T00:04:47.050Z,23.98
2022-10-25T00:07:14.426Z,21.67
2022-10-25T00:09:42.189Z,19.35
2022-10-25T00:12:09.487Z,19.98
2022-10-25T00:14:36.489Z,18.27
2022-10-25T00:17:03.821Z,18.00
2022-10-25T00:19:30.797Z,22.60
2022-10-25T00:21:57.996Z,20.13
2022-10-25T00:24:25.018Z,17.60
2022-10-25T00:26:52.232Z,18.30
2022-10-25T00:29:19.471Z,18.30
2022-10-25T00:31:46.730Z,25.15
2022-10-25T00:34:13.982Z,20.30
2022-10-25T00:36:41.147Z,19.05
2022-10-25T00:39:08.138Z,20.83
2022-10-25T00:41:35.623Z,21.98
2022-10-25T00:44:36.451Z,22.08
2022-10-25T00:47:25.260Z,21.05
2022-10-25T00:50:14.014Z,16.30
2022-10-25T00:52:42.841Z,18.83
2022-10-25T00:55:12.042Z,22.23
2022-10-25T00:57:51.559Z,20.98
2022-10-25T01:00:18.923Z,18.63
2022-10-25T01:02:46.703Z,21.25
2022-10-25T01:05:15.130Z,22.50
2022-10-25T01:07:42.351Z,15.75
2022-10-25T01:10:09.460Z,18.55
2022-10-25T01:12:36.838Z,19.70
2022-10-25T01:15:05.389Z,21.52
2022-10-25T01:17:44.117Z,16.40
2022-10-25T01:20:24.791Z,20.73
2022-10-25T01:23:11.276Z,18.90
2022-10-25T01:26:12.213Z,23.88
2022-10-25T01:28:57.096Z,21.55
2022-10-25T01:31:49.007Z,16.83
2022-10-25T01:34:27.904Z,16.50
2022-10-25T01:37:06.594Z,19.00
2022-10-25T01:39:39.666Z,21.40
2022-10-25T01:42:22.422Z,18.55
2022-10-25T01:45:07.050Z,20.33
2022-10-25T01:47:43.889Z,21.20
2022-10-25T01:50:24.352Z,24.70
2022-10-25T01:52:51.436Z,19.35
2022-10-25T01:55:20.729Z,18.58
2022-10-25T01:58:15.463Z,20.00
2022-10-25T02:00:58.626Z,20.90
2022-10-25T02:03:33.824Z,20.35
2022-10-25T02:06:06.917Z,19.35
2022-10-25T02:08:57.013Z,18.02
2022-10-25T02:11:30.282Z,19.77
2022-10-25T02:14:11.085Z,17.17
2022-10-25T02:16:44.489Z,19.10
2022-10-25T02:19:16.198Z,17.55
2022-10-25T02:21:46.578Z,19.10
2022-10-25T02:24:21.421Z,19.50
2022-10-25T02:26:50.309Z,25.08
2022-10-25T02:29:19.817Z,25.10
2022-10-25T02:31:47.304Z,18.23
2022-10-25T02:34:14.327Z,19.13
2022-10-25T02:36:41.808Z,19.85
2022-10-25T02:39:08.977Z,20.23
2022-10-25T02:41:36.188Z,21.17
2022-10-25T02:44:03.202Z,24.27
2022-10-25T02:46:31.554Z,25.45
2022-10-25T02:48:58.675Z,22.80
2022-10-25T02:51:25.844Z,21.83
2022-10-25T02:53:52.910Z,20.92
2022-10-25T02:56:22.054Z,18.60
2022-10-25T02:58:51.274Z,18.63
2022-10-25T03:01:20.046Z,21.17
2022-10-25T03:03:47.816Z,23.85
2022-10-25T03:06:15.394Z,21.20
2022-10-25T03:08:44.146Z,21.27
2022-10-25T03:11:12.715Z,18.33
2022-10-25T03:13:39.850Z,21.83
2022-10-25T03:16:07.495Z,23.55
2022-10-25T03:18:34.509Z,83.57
2022-10-25T03:21:02.870Z,282.00
2022-10-25T03:23:30.263Z,97.30
2022-10-25T03:25:59.603Z,79.40
2022-10-25T03:28:27.543Z,59.22
2022-10-25T03:30:55.998Z,198.57
2022-10-25T03:33:23.696Z,46.80
2022-10-25T03:35:52.143Z,81.30
2022-10-25T03:38:19.411Z,82.82
2022-10-25T03:40:46.840Z,43.22
2022-10-25T03:43:13.887Z,31.08
2022-10-25T03:45:41.167Z,54.22
2022-10-25T03:48:08.297Z,56.70
2022-10-25T03:50:36.296Z,44.45
2022-10-25T03:53:05.116Z,47.65
2022-10-25T03:55:33.649Z,38.53
2022-10-25T03:58:00.750Z,57.15
2022-10-25T04:00:28.400Z,52.78
2022-10-25T04:03:00.958Z,55.05
2022-10-25T04:05:31.200Z,66.30
2022-10-25T04:07:58.766Z,64.32
2022-10-25T04:10:26.034Z,51.97
2022-10-25T04:12:54.678Z,44.95
2022-10-25T04:15:23.723Z,76.78
2022-10-25T04:17:53.865Z,46.53
2022-10-25T04:20:21.532Z,45.90
2022-10-25T04:22:58.218Z,43.10
2022-10-25T04:25:27.231Z,38.35
2022-10-25T04:27:54.945Z,43.60
2022-10-25T04:30:22.173Z,37.78
2022-10-25T04:32:49.806Z,46.50
2022-10-25T04:35:17.570Z,36.95
2022-10-25T04:37:44.540Z,42.85
2022-10-25T04:40:12.083Z,41.75
2022-10-25T04:42:39.095Z,39.72
2022-10-25T04:45:06.650Z,37.28
2022-10-25T04:47:33.917Z,44.88
2022-10-25T04:50:01.608Z,39.47
2022-10-25T04:52:30.034Z,40.50
2022-10-25T04:54:58.325Z,37.80
2022-10-25T04:57:25.840Z,48.97
2022-10-25T04:59:53.165Z,45.00
2022-10-25T05:02:20.148Z,49.80
2022-10-25T05:04:47.354Z,45.92
2022-10-25T05:07:19.560Z,37.72
2022-10-25T05:09:47.619Z,36.63
2022-10-25T05:12:15.447Z,32.08
2022-10-25T05:14:42.903Z,39.63
2022-10-25T05:17:09.896Z,34.92
2022-10-25T05:19:37.051Z,34.17
2022-10-25T05:22:04.093Z,36.08
2022-10-25T05:24:31.483Z,31.58
2022-10-25T05:26:58.464Z,34.17
2022-10-25T05:29:25.678Z,35.03
2022-10-25T05:31:52.774Z,32.20
2022-10-25T05:34:22.270Z,30.58
2022-10-25T05:36:49.268Z,33.45
2022-10-25T05:39:16.444Z,29.40
2022-10-25T05:41:43.408Z,32.45
2022-10-25T05:44:10.720Z,33.50
2022-10-25T05:46:37.790Z,31.13
2022-10-25T05:49:05.110Z,33.88
2022-10-25T05:51:35.097Z,64.07
2022-10-25T05:54:07.925Z,73.80
2022-10-25T05:56:36.168Z,86.10
2022-10-25T05:59:11.802Z,64.13
2022-10-25T06:01:41.333Z,75.85
2022-10-25T06:04:09.232Z,160.88
2022-10-25T06:06:38.599Z,116.60
2022-10-25T06:09:07.726Z,50.95
2022-10-25T06:11:35.028Z,67.32
2022-10-25T06:14:02.723Z,58.53
2022-10-25T06:16:29.758Z,54.50
2022-10-25T06:18:56.994Z,105.78
2022-10-25T06:21:27.233Z,53.28
2022-10-25T06:23:55.422Z,105.00
2022-10-25T06:26:27.974Z,51.25
2022-10-25T06:28:57.604Z,45.97
2022-10-25T06:31:25.202Z,27.80
2022-10-25T06:33:52.817Z,31.25
2022-10-25T06:36:22.422Z,31.20
2022-10-25T06:38:50.483Z,44.92
2022-10-25T06:41:19.508Z,48.88
2022-10-25T06:43:46.921Z,98.40
2022-10-25T06:46:26.172Z,75.65
2022-10-25T06:48:55.668Z,48.08
2022-10-25T06:51:24.099Z,31.23
2022-10-25T06:53:55.428Z,31.48
2022-10-25T06:56:23.279Z,27.75
2022-10-25T06:58:51.215Z,36.78
2022-10-25T07:01:20.479Z,52.55
2022-10-25T07:03:50.552Z,27.33
2022-10-25T07:06:27.596Z,32.85
2022-10-25T07:08:57.171Z,39.55
2022-10-25T07:11:25.387Z,40.50
2022-10-25T07:13:52.708Z,41.50
2022-10-25T07:16:20.806Z,31.02
2022-10-25T07:18:48.945Z,32.53
2022-10-25T07:21:20.155Z,26.65
2022-10-25T07:23:48.787Z,30.42
2022-10-25T07:26:20.190Z,31.98
2022-10-25T07:28:48.591Z,21.58
2022-10-25T07:31:25.807Z,21.98
2022-10-25T07:33:56.907Z,21.95
2022-10-25T07:36:24.382Z,30.77
2022-10-25T07:38:51.569Z,171.18
2022-10-25T07:41:19.423Z,30.83
2022-10-25T07:43:46.705Z,50.58
2022-10-25T07:46:16.327Z,40.35
2022-10-25T07:48:44.009Z,40.50
2022-10-25T07:51:13.249Z,33.10
2022-10-25T07:53:40.810Z,85.97
2022-10-25T07:56:17.668Z,83.07
2022-10-25T07:58:48.421Z,79.05
2022-10-25T08:01:21.043Z,125.80
2022-10-25T08:03:48.425Z,223.70
2022-10-25T08:06:15.800Z,353.17
2022-10-25T08:08:43.224Z,215.80
2022-10-25T08:11:10.345Z,101.20
2022-10-25T08:13:38.794Z,67.57
2022-10-25T08:16:06.943Z,126.53
2022-10-25T08:18:34.885Z,65.47
2022-10-25T08:21:04.136Z,131.80
2022-10-25T08:23:32.424Z,131.60
2022-10-25T08:26:00.818Z,98.60
2022-10-25T08:28:30.791Z,191.95
2022-10-25T08:30:58.196Z,510.08
2022-10-25T08:33:25.405Z,149.10
2022-10-25T08:35:52.410Z,279.27
2022-10-25T08:38:19.601Z,116.53
2022-10-25T08:41:05.945Z,83.70
2022-10-25T08:43:48.027Z,85.03
2022-10-25T08:46:27.777Z,254.57
2022-10-25T08:49:09.749Z,149.40
2022-10-25T08:51:40.415Z,104.15
2022-10-25T08:54:26.241Z,100.05
2022-10-25T08:57:14.945Z,82.20
2022-10-25T08:59:47.427Z,123.18
2022-10-25T09:02:48.148Z,133.32
2022-10-25T09:05:38.470Z,70.05
2022-10-25T09:08:33.508Z,75.22
2022-10-25T09:11:35.068Z,38.97
2022-10-25T09:14:25.375Z,54.78
2022-10-25T09:17:22.993Z,55.10
2022-10-25T09:20:07.651Z,63.42
2022-10-25T09:23:04.686Z,111.53
2022-10-25T09:25:47.772Z,65.28
2022-10-25T09:28:24.520Z,60.72
2022-10-25T09:30:57.193Z,110.40
2022-10-25T09:33:30.388Z,35.97
2022-10-25T09:35:58.745Z,52.50
2022-10-25T09:38:40.394Z,43.13
2022-10-25T09:41:28.739Z,28.90
2022-10-25T09:44:07.009Z,32.25
2022-10-25T09:46:52.954Z,24.75
2022-10-25T09:49:28.300Z,42.67
2022-10-25T09:52:24.170Z,27.95
2022-10-25T09:55:22.245Z,26.67
2022-10-25T09:57:51.690Z,28.77
2022-10-25T10:00:18.890Z,25.70
2022-10-25T10:02:46.072Z,40.83
2022-10-25T10:05:19.316Z,30.20
2022-10-25T10:07:48.015Z,37.88
2022-10-25T10:10:26.195Z,35.80
2022-10-25T10:13:14.280Z,32.38
2022-10-25T10:16:20.181Z,34.00
2022-10-25T10:18:48.566Z,33.50
2022-10-25T10:21:21.028Z,65.53
2022-10-25T10:23:52.618Z,76.00
2022-10-25T10:26:27.952Z,34.03
2022-10-25T10:29:15.367Z,34.85
2022-10-25T10:31:51.873Z,34.00
2022-10-25T10:34:25.000Z,52.40
2022-10-25T10:37:28.112Z,30.38
2022-10-25T10:40:08.163Z,34.03
2022-10-25T10:42:37.529Z,36.63
2022-10-25T10:45:13.461Z,30.98
2022-10-25T10:47:49.789Z,41.45
2022-10-25T10:50:22.870Z,39.85
2022-10-25T10:53:03.370Z,22.55
2022-10-25T10:55:49.460Z,22.63
2022-10-25T10:58:25.229Z,25.52
2022-10-25T11:00:53.517Z,26.77
2022-10-25T11:03:59.265Z,25.88
2022-10-25T11:06:34.909Z,21.98
2022-10-25T11:09:13.030Z,44.03
2022-10-25T11:11:41.169Z,27.45
2022-10-25T11:14:13.621Z,31.30
2022-10-25T11:16:59.703Z,30.10
2022-10-25T11:19:57.544Z,36.45
2022-10-25T11:22:52.138Z,25.08
2022-10-25T11:25:30.108Z,33.50
2022-10-25T11:28:11.867Z,23.17
2022-10-25T11:31:06.116Z,25.42
2022-10-25T11:33:42.575Z,24.15
2022-10-25T11:36:19.546Z,39.67
2022-10-25T11:39:41.931Z,25.58
2022-10-25T11:42:34.710Z,46.25
2022-10-25T11:45:21.511Z,48.92
2022-10-25T11:48:22.583Z,30.02
2022-10-25T11:51:07.730Z,55.90
2022-10-25T11:54:21.682Z,28.58
2022-10-25T11:57:09.820Z,42.78
2022-10-25T11:59:49.624Z,19.25
2022-10-25T12:02:38.818Z,44.15
2022-10-25T12:05:25.686Z,50.15
2022-10-25T12:08:16.883Z,24.00
2022-10-25T12:10:49.614Z,29.05
2022-10-25T12:13:26.332Z,27.27
2022-10-25T12:15:56.478Z,26.90
2022-10-25T12:18:31.884Z,32.53
2022-10-25T12:20:59.925Z,48.33
2022-10-25T12:23:30.078Z,56.22
2022-10-25T12:26:04.945Z,55.50
2022-10-25T12:28:49.015Z,73.03
2022-10-25T12:31:26.190Z,35.97
2022-10-25T12:34:06.343Z,35.03
2022-10-25T12:36:40.193Z,30.10
2022-10-25T12:39:36.307Z,33.42
2022-10-25T12:42:14.712Z,40.63
2022-10-25T12:45:16.716Z,62.08
2022-10-25T12:48:18.371Z,43.25
2022-10-25T12:50:57.531Z,85.55
2022-10-25T12:53:43.040Z,51.78
2022-10-25T12:56:32.018Z,52.45
2022-10-25T12:59:20.995Z,19.88
2022-10-25T13:02:04.481Z,34.50
2022-10-25T13:04:59.284Z,31.42
2022-10-25T13:07:30.167Z,40.45
2022-10-25T13:10:07.412Z,40.20
2022-10-25T13:12:34.473Z,28.42
2022-10-25T13:15:03.440Z,49.47
2022-10-25T13:17:48.334Z,29.17
2022-10-25T13:22:50.733Z,37.75
2022-10-25T13:25:43.815Z,25.67
2022-10-25T13:28:16.691Z,24.58
2022-10-25T13:30:44.775Z,27.20
2022-10-25T13:33:22.676Z,32.72
2022-10-25T13:35:49.836Z,41.53
2022-10-25T13:38:24.145Z,32.20
2022-10-25T13:41:18.859Z,27.65
2022-10-25T13:44:02.447Z,51.78
2022-10-25T13:46:31.929Z,39.88
2022-10-25T13:49:01.203Z,32.08
2022-10-25T13:51:31.573Z,41.25
2022-10-25T13:54:06.081Z,45.03
2022-10-25T13:56:47.735Z,35.88
2022-10-25T13:59:33.462Z,54.70
2022-10-25T14:02:19.591Z,60.17
2022-10-25T14:04:46.707Z,46.13
2022-10-25T14:07:42.254Z,50.40
2022-10-25T14:12:58.034Z,52.80
2022-10-25T14:15:35.289Z,46.40
2022-10-25T14:18:07.719Z,33.17
2022-10-25T14:20:36.142Z,32.15
2022-10-25T14:23:06.290Z,58.15
2022-10-25T14:25:51.115Z,191.18
2022-10-25T14:28:27.155Z,66.43
2022-10-25T14:31:00.661Z,114.95
2022-10-25T14:33:33.850Z,67.63
2022-10-25T14:36:05.523Z,93.32
2022-10-25T14:38:36.968Z,88.35
2022-10-25T14:41:11.868Z,86.18
2022-10-25T14:43:42.867Z,121.97
2022-10-25T14:46:16.539Z,85.50
2022-10-25T14:48:48.658Z,78.70
2022-10-25T14:51:31.441Z,89.43
2022-10-25T14:54:05.969Z,99.03
2022-10-25T14:56:37.277Z,68.10
2022-10-25T14:59:08.121Z,65.03
2022-10-25T15:01:37.861Z,92.97
2022-10-25T15:04:05.236Z,106.47
2022-10-25T15:06:32.992Z,70.53
2022-10-25T15:09:40.651Z,73.22
2022-10-25T15:12:10.530Z,93.72
2022-10-25T15:14:41.573Z,84.80
2022-10-25T15:17:29.668Z,51.97
2022-10-25T15:20:04.858Z,42.03
2022-10-25T15:22:38.254Z,86.97
2022-10-25T15:25:24.102Z,83.28
2022-10-25T15:27:52.588Z,51.75
2022-10-25T15:30:37.139Z,42.47
2022-10-25T15:33:10.712Z,36.40
2022-10-25T15:35:57.052Z,45.50
2022-10-25T15:38:42.048Z,51.47
2022-10-25T15:41:15.346Z,44.95
2022-10-25T15:43:42.349Z,56.42
2022-10-25T15:46:28.544Z,87.22
2022-10-25T15:48:58.098Z,73.82
2022-10-25T15:51:28.782Z,63.47
2022-10-25T15:54:01.247Z,62.53
2022-10-25T15:56:29.117Z,94.38
2022-10-25T15:58:58.648Z,83.55
2022-10-25T16:01:27.006Z,80.20
2022-10-25T16:03:54.069Z,70.70
2022-10-25T16:06:21.324Z,55.10
2022-10-25T16:08:48.353Z,72.55
2022-10-25T16:11:18.762Z,63.75
2022-10-25T16:13:51.041Z,68.70
2022-10-25T16:16:45.108Z,64.88
2022-10-25T16:19:18.093Z,79.05
2022-10-25T16:21:45.791Z,66.45
2022-10-25T16:24:13.687Z,56.10
2022-10-25T16:26:43.926Z,67.30
2022-10-25T16:29:19.478Z,52.83
2022-10-25T16:31:47.110Z,72.32
2022-10-25T16:34:17.297Z,75.47
2022-10-25T16:36:45.719Z,85.43
2022-10-25T16:39:13.625Z,97.07
2022-10-25T16:41:43.318Z,88.50
2022-10-25T16:44:16.365Z,113.25
2022-10-25T16:46:44.314Z,158.75
2022-10-25T16:49:11.717Z,172.88
2022-10-25T16:51:39.927Z,175.13
2022-10-25T16:54:08.407Z,103.32
2022-10-25T16:56:35.783Z,116.43
2022-10-25T16:59:03.435Z,105.80
2022-10-25T17:01:34.584Z,92.43
2022-10-25T17:04:03.922Z,71.00
2022-10-25T17:06:46.450Z,74.82
2022-10-25T17:09:13.596Z,79.47
2022-10-25T17:11:44.612Z,72.28
2022-10-25T17:14:13.745Z,62.33
2022-10-25T17:16:42.963Z,63.80
2022-10-25T17:19:11.146Z,56.10
2022-10-25T17:21:42.056Z,61.15
2022-10-25T17:24:09.742Z,49.83
2022-10-25T17:26:40.290Z,62.63
2022-10-25T17:29:07.775Z,106.50
2022-10-25T17:31:35.303Z,124.80
2022-10-25T17:34:03.611Z,80.97
2022-10-25T17:36:32.421Z,76.15
2022-10-25T17:39:02.247Z,62.83
2022-10-25T17:41:29.488Z,56.28
2022-10-25T17:43:57.169Z,58.42
2022-10-25T17:46:27.682Z,55.42
2022-10-25T17:48:56.755Z,57.33
2022-10-25T17:51:24.312Z,51.20
2022-10-25T17:53:54.259Z,68.10
2022-10-25T17:56:23.861Z,94.00
2022-10-25T17:58:51.481Z,113.78
2022-10-25T18:01:22.028Z,102.75
2022-10-25T18:03:50.044Z,61.53
2022-10-25T18:06:20.071Z,55.88
2022-10-25T18:08:52.167Z,86.03
2022-10-25T18:11:23.752Z,81.00
2022-10-25T18:13:52.686Z,82.35
2022-10-25T18:16:22.033Z,84.63
2022-10-25T18:18:49.159Z,76.03
2022-10-25T18:21:16.714Z,60.03
2022-10-25T18:23:45.576Z,76.40
2022-10-25T18:26:14.008Z,92.15
2022-10-25T18:28:41.125Z,61.00
2022-10-25T18:31:11.237Z,51.60
2022-10-25T18:33:42.476Z,55.25
2022-10-25T18:36:17.841Z,69.90
2022-10-25T18:38:45.920Z,71.65
2022-10-25T18:41:19.131Z,61.33
2022-10-25T18:43:46.234Z,48.88
2022-10-25T18:46:13.960Z,39.00
2022-10-25T18:48:42.140Z,36.13
2022-10-25T18:51:13.799Z,39.38
2022-10-25T18:53:40.848Z,40.55
2022-10-25T18:56:11.355Z,34.85
2022-10-25T18:58:42.269Z,40.03
2022-10-25T19:01:15.269Z,37.13
2022-10-25T19:03:43.117Z,36.88
2022-10-25T19:06:11.209Z,33.88
2022-10-25T19:08:39.270Z,34.78
2022-10-25T19:11:12.183Z,34.83
2022-10-25T19:13:40.457Z,37.50
2022-10-25T19:16:11.991Z,34.38
2022-10-25T19:18:39.836Z,31.65
2022-10-25T19:21:09.573Z,28.88
2022-10-25T19:23:37.605Z,34.42
2022-10-25T19:26:11.297Z,32.97
2022-10-25T19:28:38.770Z,31.77
2022-10-25T19:31:08.139Z,29.60
2022-10-25T19:33:35.760Z,29.60
2022-10-25T19:36:08.179Z,27.67
2022-10-25T19:38:36.346Z,31.65
2022-10-25T19:41:07.627Z,26.85
2022-10-25T19:43:36.145Z,28.10
2022-10-25T19:46:05.354Z,29.15
2022-10-25T19:48:32.925Z,32.45
2022-10-25T19:51:09.599Z,25.98
2022-10-25T19:53:37.128Z,24.40
2022-10-25T19:56:13.720Z,24.80
2022-10-25T19:58:41.422Z,49.00
2022-10-25T20:01:15.703Z,62.03
2022-10-25T20:03:43.887Z,52.72
2022-10-25T20:06:20.061Z,61.92
2022-10-25T20:08:50.446Z,53.17
2022-10-25T20:11:18.610Z,63.00
2022-10-25T20:13:45.999Z,51.28
2022-10-25T20:16:14.273Z,53.40
2022-10-25T20:18:42.489Z,54.75
2022-10-25T20:21:12.674Z,68.57
2022-10-25T20:23:41.488Z,47.03
2022-10-25T20:26:15.923Z,48.35
2022-10-25T20:28:43.567Z,45.72
2022-10-25T20:31:12.969Z,49.70
2022-10-25T20:33:40.554Z,37.88
2022-10-25T20:36:10.884Z,64.85
2022-10-25T20:38:38.576Z,59.22
2022-10-25T20:41:14.158Z,60.88
2022-10-25T20:43:43.191Z,60.53
2022-10-25T20:46:10.422Z,46.58
2022-10-25T20:48:38.015Z,30.35
2022-10-25T20:51:07.795Z,53.58
2022-10-25T20:53:38.804Z,36.22
2022-10-25T20:56:06.861Z,31.00
2022-10-25T20:58:34.750Z,34.92
2022-10-25T21:01:04.258Z,34.03
2022-10-25T21:03:31.955Z,32.10
2022-10-25T21:06:01.297Z,34.33
2022-10-25T21:08:28.406Z,28.38
2022-10-25T21:11:06.938Z,40.40
2022-10-25T21:13:35.790Z,40.50
2022-10-25T21:16:11.723Z,31.42
2022-10-25T21:18:39.002Z,34.75
2022-10-25T21:21:09.221Z,37.05
2022-10-25T21:23:36.784Z,34.20
2022-10-25T21:26:06.500Z,34.00
2022-10-25T21:28:36.641Z,31.65
2022-10-25T21:31:05.241Z,35.90
2022-10-25T21:33:32.283Z,36.25
2022-10-25T21:36:07.383Z,36.35
2022-10-25T21:38:34.843Z,37.25
2022-10-25T21:41:26.772Z,29.33
2022-10-25T21:43:55.144Z,31.13
2022-10-25T21:46:23.789Z,33.72
2022-10-25T21:48:51.212Z,33.78
2022-10-25T21:51:24.333Z,34.83
2022-10-25T21:56:31.174Z,38.05
2022-10-25T21:58:59.736Z,41.30
2022-10-25T22:01:29.393Z,34.65
2022-10-25T22:03:56.687Z,37.22
2022-10-25T22:06:25.516Z,33.15
2022-10-25T22:08:53.981Z,34.55
2022-10-25T22:11:27.334Z,32.70
2022-10-25T22:14:05.988Z,33.22
2022-10-25T22:16:33.802Z,35.28
2022-10-25T22:19:03.738Z,41.85
2022-10-25T22:21:34.552Z,33.63
2022-10-25T22:24:02.628Z,33.90
2022-10-25T22:26:30.026Z,33.28
2022-10-25T22:28:58.972Z,34.33
2022-10-25T22:31:28.745Z,38.85
2022-10-25T22:33:58.306Z,33.90
2022-10-25T22:36:28.711Z,39.45
2022-10-25T22:38:56.992Z,37.03
2022-10-25T22:41:25.930Z,32.70
2022-10-25T22:43:53.725Z,36.30
2022-10-25T22:46:25.222Z,37.72
2022-10-25T22:48:54.613Z,38.00
2022-10-25T22:51:23.179Z,35.97
2022-10-25T22:53:50.387Z,37.63
2022-10-25T22:56:20.304Z,41.95
2022-10-25T22:58:52.620Z,37.78
2022-10-25T23:01:25.178Z,41.75
2022-10-25T23:03:55.701Z,36.90
2022-10-25T23:06:28.181Z,34.47
2022-10-25T23:08:56.899Z,37.30
2022-10-25T23:11:27.034Z,36.72
2022-10-25T23:13:54.512Z,32.28
2022-10-25T23:16:21.730Z,32.90
2022-10-25T23:18:48.778Z,38.13
2022-10-25T23:21:27.481Z,35.58
2022-10-25T23:23:55.013Z,30.27
2022-10-25T23:26:24.823Z,44.33
2022-10-25T23:28:52.153Z,45.35
2022-10-25T23:31:19.403Z,43.88
2022-10-25T23:33:51.007Z,42.63
2022-10-25T23:36:19.914Z,50.55
2022-10-25T23:38:48.181Z,44.67
2022-10-25T23:41:15.708Z,47.05
2022-10-25T23:43:42.827Z,44.28
2022-10-25T23:46:10.586Z,45.97
2022-10-25T23:48:38.026Z,43.22
2022-10-25T23:51:09.592Z,44.17
2022-10-25T23:53:37.206Z,52.35
2022-10-25T23:56:07.315Z,50.42
2022-10-25T23:58:38.628Z,49.13
